sensor_id;sensor_type;location;lat;lon;timestamp;P1;durP1;ratioP1;P2;durP2;ratioP2
11827;SDS011;5971;49.646;8.568;2023-08-17T00:02:26;3.92;;;2.25;;
11827;SDS011;5971;49.646;8.568;2023-08-17T00:05:27;4.38;;;1.90;;
11827;SDS011;5971;49.646;8.568;2023-08-17T00:08:28;3.38;;;1.77;;
11827;SDS011;5971;49.646;8.568;2023-08-17T00:11:30;4.07;;;2.45;;
11827;SDS011;5971;49.646;8.568;2023-08-17T00:14:32;3.47;;;1.60;;
11827;SDS011;5971;49.646;8.568;2023-08-17T00:17:33;3.95;;;2.03;;
11827;SDS011;5971;49.646;8.568;2023-08-17T00:20:34;3.95;;;1.80;;
11827;SDS011;5971;49.646;8.568;2023-08-17T00:23:36;2.67;;;1.55;;
11827;SDS011;5971;49.646;8.568;2023-08-17T00:26:37;5.50;;;2.00;;
11827;SDS011;5971;49.646;8.568;2023-08-17T00:29:38;3.85;;;2.00;;
11827;SDS011;5971;49.646;8.568;2023-08-17T00:32:40;4.53;;;1.60;;
11827;SDS011;5971;49.646;8.568;2023-08-17T00:35:41;3.40;;;1.80;;
11827;SDS011;5971;49.646;8.568;2023-08-17T00:38:42;2.92;;;1.60;;
11827;SDS011;5971;49.646;8.568;2023-08-17T00:41:44;3.85;;;2.25;;
11827;SDS011;5971;49.646;8.568;2023-08-17T00:44:45;3.42;;;1.60;;
11827;SDS011;5971;49.646;8.568;2023-08-17T00:47:46;4.63;;;2.58;;
11827;SDS011;5971;49.646;8.568;2023-08-17T00:50:48;2.95;;;1.83;;
11827;SDS011;5971;49.646;8.568;2023-08-17T00:53:50;3.58;;;2.03;;
11827;SDS011;5971;49.646;8.568;2023-08-17T00:56:52;4.75;;;2.25;;
11827;SDS011;5971;49.646;8.568;2023-08-17T00:59:54;4.40;;;2.30;;
11827;SDS011;5971;49.646;8.568;2023-08-17T01:03:05;4.47;;;2.30;;
11827;SDS011;5971;49.646;8.568;2023-08-17T01:06:07;5.28;;;3.03;;
11827;SDS011;5971;49.646;8.568;2023-08-17T01:09:08;4.90;;;2.30;;
11827;SDS011;5971;49.646;8.568;2023-08-17T01:12:14;3.85;;;2.35;;
11827;SDS011;5971;49.646;8.568;2023-08-17T01:15:24;3.83;;;2.17;;
11827;SDS011;5971;49.646;8.568;2023-08-17T01:21:35;3.85;;;2.20;;
11827;SDS011;5971;49.646;8.568;2023-08-17T01:24:38;5.88;;;2.15;;
11827;SDS011;5971;49.646;8.568;2023-08-17T01:27:40;4.25;;;2.20;;
11827;SDS011;5971;49.646;8.568;2023-08-17T01:33:44;4.88;;;2.30;;
11827;SDS011;5971;49.646;8.568;2023-08-17T01:36:53;5.97;;;2.97;;
11827;SDS011;5971;49.646;8.568;2023-08-17T01:39:55;5.05;;;2.47;;
11827;SDS011;5971;49.646;8.568;2023-08-17T01:42:57;5.30;;;2.50;;
11827;SDS011;5971;49.646;8.568;2023-08-17T01:45:59;6.90;;;2.80;;
11827;SDS011;5971;49.646;8.568;2023-08-17T01:49:01;6.03;;;2.63;;
11827;SDS011;5971;49.646;8.568;2023-08-17T01:52:03;6.47;;;3.47;;
11827;SDS011;5971;49.646;8.568;2023-08-17T01:55:04;5.53;;;3.20;;
11827;SDS011;5971;49.646;8.568;2023-08-17T01:58:05;5.10;;;3.22;;
11827;SDS011;5971;49.646;8.568;2023-08-17T02:01:07;5.40;;;3.22;;
11827;SDS011;5971;49.646;8.568;2023-08-17T02:04:08;7.57;;;3.55;;
11827;SDS011;5971;49.646;8.568;2023-08-17T02:07:10;5.70;;;3.53;;
11827;SDS011;5971;49.646;8.568;2023-08-17T02:10:11;6.53;;;3.20;;
11827;SDS011;5971;49.646;8.568;2023-08-17T02:13:12;7.43;;;3.13;;
11827;SDS011;5971;49.646;8.568;2023-08-17T02:16:19;6.20;;;3.40;;
11827;SDS011;5971;49.646;8.568;2023-08-17T02:19:21;6.57;;;3.67;;
11827;SDS011;5971;49.646;8.568;2023-08-17T02:22:22;7.13;;;3.53;;
11827;SDS011;5971;49.646;8.568;2023-08-17T02:25:23;7.07;;;3.67;;
11827;SDS011;5971;49.646;8.568;2023-08-17T02:28:25;7.05;;;3.53;;
11827;SDS011;5971;49.646;8.568;2023-08-17T02:31:26;6.63;;;4.15;;
11827;SDS011;5971;49.646;8.568;2023-08-17T02:34:27;6.82;;;3.78;;
11827;SDS011;5971;49.646;8.568;2023-08-17T02:37:29;8.43;;;3.85;;
11827;SDS011;5971;49.646;8.568;2023-08-17T02:40:30;7.95;;;4.05;;
11827;SDS011;5971;49.646;8.568;2023-08-17T02:43:31;6.82;;;3.80;;
11827;SDS011;5971;49.646;8.568;2023-08-17T02:46:33;7.32;;;4.10;;
11827;SDS011;5971;49.646;8.568;2023-08-17T02:49:34;9.80;;;4.80;;
11827;SDS011;5971;49.646;8.568;2023-08-17T02:52:36;8.93;;;4.70;;
11827;SDS011;5971;49.646;8.568;2023-08-17T02:55:37;9.90;;;5.35;;
11827;SDS011;5971;49.646;8.568;2023-08-17T02:58:39;10.38;;;5.25;;
11827;SDS011;5971;49.646;8.568;2023-08-17T03:01:44;12.05;;;5.55;;
11827;SDS011;5971;49.646;8.568;2023-08-17T03:04:45;14.55;;;7.28;;
11827;SDS011;5971;49.646;8.568;2023-08-17T03:07:46;14.57;;;6.78;;
11827;SDS011;5971;49.646;8.568;2023-08-17T03:10:48;22.88;;;6.65;;
11827;SDS011;5971;49.646;8.568;2023-08-17T03:13:49;23.30;;;7.50;;
11827;SDS011;5971;49.646;8.568;2023-08-17T03:16:50;19.88;;;7.70;;
11827;SDS011;5971;49.646;8.568;2023-08-17T03:19:52;16.77;;;7.00;;
11827;SDS011;5971;49.646;8.568;2023-08-17T03:22:53;16.02;;;7.05;;
11827;SDS011;5971;49.646;8.568;2023-08-17T03:25:54;16.65;;;7.15;;
11827;SDS011;5971;49.646;8.568;2023-08-17T03:28:56;18.98;;;7.07;;
11827;SDS011;5971;49.646;8.568;2023-08-17T03:31:57;17.17;;;7.13;;
11827;SDS011;5971;49.646;8.568;2023-08-17T03:34:59;21.13;;;6.30;;
11827;SDS011;5971;49.646;8.568;2023-08-17T03:38:00;20.95;;;6.95;;
11827;SDS011;5971;49.646;8.568;2023-08-17T03:41:01;35.28;;;6.90;;
11827;SDS011;5971;49.646;8.568;2023-08-17T03:44:05;19.40;;;8.88;;
11827;SDS011;5971;49.646;8.568;2023-08-17T03:47:07;18.30;;;5.80;;
11827;SDS011;5971;49.646;8.568;2023-08-17T03:50:09;19.27;;;6.80;;
11827;SDS011;5971;49.646;8.568;2023-08-17T03:53:10;20.05;;;6.30;;
11827;SDS011;5971;49.646;8.568;2023-08-17T03:56:11;12.77;;;5.03;;
11827;SDS011;5971;49.646;8.568;2023-08-17T03:59:13;21.30;;;5.75;;
11827;SDS011;5971;49.646;8.568;2023-08-17T04:02:15;21.70;;;6.70;;
11827;SDS011;5971;49.646;8.568;2023-08-17T04:05:16;15.82;;;6.97;;
11827;SDS011;5971;49.646;8.568;2023-08-17T04:08:18;20.55;;;6.75;;
11827;SDS011;5971;49.646;8.568;2023-08-17T04:11:19;19.88;;;7.35;;
11827;SDS011;5971;49.646;8.568;2023-08-17T04:14:20;31.33;;;8.43;;
11827;SDS011;5971;49.646;8.568;2023-08-17T04:17:22;26.67;;;7.32;;
11827;SDS011;5971;49.646;8.568;2023-08-17T04:20:23;22.52;;;7.20;;
11827;SDS011;5971;49.646;8.568;2023-08-17T04:23:26;25.80;;;7.85;;
11827;SDS011;5971;49.646;8.568;2023-08-17T04:26:27;23.60;;;8.23;;
11827;SDS011;5971;49.646;8.568;2023-08-17T04:29:29;23.40;;;6.70;;
11827;SDS011;5971;49.646;8.568;2023-08-17T04:32:31;21.42;;;7.38;;
11827;SDS011;5971;49.646;8.568;2023-08-17T04:35:32;18.75;;;7.10;;
11827;SDS011;5971;49.646;8.568;2023-08-17T04:38:34;19.58;;;6.97;;
11827;SDS011;5971;49.646;8.568;2023-08-17T04:41:35;20.27;;;6.57;;
11827;SDS011;5971;49.646;8.568;2023-08-17T04:44:36;19.38;;;6.32;;
11827;SDS011;5971;49.646;8.568;2023-08-17T04:47:37;22.95;;;6.22;;
11827;SDS011;5971;49.646;8.568;2023-08-17T04:50:39;17.17;;;6.22;;
11827;SDS011;5971;49.646;8.568;2023-08-17T04:53:40;19.88;;;6.93;;
11827;SDS011;5971;49.646;8.568;2023-08-17T04:56:42;17.67;;;5.93;;
11827;SDS011;5971;49.646;8.568;2023-08-17T04:59:44;18.48;;;7.47;;
11827;SDS011;5971;49.646;8.568;2023-08-17T05:02:45;16.65;;;6.72;;
11827;SDS011;5971;49.646;8.568;2023-08-17T05:05:47;18.65;;;7.53;;
11827;SDS011;5971;49.646;8.568;2023-08-17T05:08:48;20.58;;;8.73;;
11827;SDS011;5971;49.646;8.568;2023-08-17T05:11:49;20.52;;;6.93;;
11827;SDS011;5971;49.646;8.568;2023-08-17T05:14:51;17.70;;;6.95;;
11827;SDS011;5971;49.646;8.568;2023-08-17T05:17:52;17.83;;;7.30;;
11827;SDS011;5971;49.646;8.568;2023-08-17T05:20:53;17.92;;;7.78;;
11827;SDS011;5971;49.646;8.568;2023-08-17T05:23:55;18.55;;;7.15;;
11827;SDS011;5971;49.646;8.568;2023-08-17T05:26:56;16.67;;;6.00;;
11827;SDS011;5971;49.646;8.568;2023-08-17T05:29:58;14.75;;;6.15;;
11827;SDS011;5971;49.646;8.568;2023-08-17T05:33:00;15.38;;;6.47;;
11827;SDS011;5971;49.646;8.568;2023-08-17T05:36:01;15.65;;;6.53;;
11827;SDS011;5971;49.646;8.568;2023-08-17T05:39:03;13.57;;;6.32;;
11827;SDS011;5971;49.646;8.568;2023-08-17T05:42:04;13.82;;;6.20;;
11827;SDS011;5971;49.646;8.568;2023-08-17T05:45:06;13.70;;;6.15;;
11827;SDS011;5971;49.646;8.568;2023-08-17T05:48:07;13.70;;;6.50;;
11827;SDS011;5971;49.646;8.568;2023-08-17T05:51:09;18.05;;;6.05;;
11827;SDS011;5971;49.646;8.568;2023-08-17T05:54:10;12.55;;;5.78;;
11827;SDS011;5971;49.646;8.568;2023-08-17T05:57:11;11.18;;;4.72;;
11827;SDS011;5971;49.646;8.568;2023-08-17T06:00:13;9.18;;;4.45;;
11827;SDS011;5971;49.646;8.568;2023-08-17T06:03:14;10.85;;;5.90;;
11827;SDS011;5971;49.646;8.568;2023-08-17T06:06:16;8.82;;;4.43;;
11827;SDS011;5971;49.646;8.568;2023-08-17T06:09:17;9.88;;;4.95;;
11827;SDS011;5971;49.646;8.568;2023-08-17T06:12:19;8.15;;;4.70;;
11827;SDS011;5971;49.646;8.568;2023-08-17T06:15:20;8.50;;;4.82;;
11827;SDS011;5971;49.646;8.568;2023-08-17T06:18:21;8.15;;;4.60;;
11827;SDS011;5971;49.646;8.568;2023-08-17T06:21:23;7.63;;;4.03;;
11827;SDS011;5971;49.646;8.568;2023-08-17T06:24:24;8.68;;;4.43;;
11827;SDS011;5971;49.646;8.568;2023-08-17T06:27:26;7.03;;;4.30;;
11827;SDS011;5971;49.646;8.568;2023-08-17T06:30:27;9.15;;;4.40;;
11827;SDS011;5971;49.646;8.568;2023-08-17T06:33:29;9.35;;;4.70;;
11827;SDS011;5971;49.646;8.568;2023-08-17T06:36:30;8.55;;;4.55;;
11827;SDS011;5971;49.646;8.568;2023-08-17T06:39:32;6.53;;;4.00;;
11827;SDS011;5971;49.646;8.568;2023-08-17T06:42:33;7.78;;;5.15;;
11827;SDS011;5971;49.646;8.568;2023-08-17T06:45:35;8.15;;;4.00;;
11827;SDS011;5971;49.646;8.568;2023-08-17T06:48:36;6.90;;;4.28;;
11827;SDS011;5971;49.646;8.568;2023-08-17T06:51:38;6.90;;;3.63;;
11827;SDS011;5971;49.646;8.568;2023-08-17T06:54:39;7.00;;;3.72;;
11827;SDS011;5971;49.646;8.568;2023-08-17T06:57:41;7.00;;;4.88;;
11827;SDS011;5971;49.646;8.568;2023-08-17T07:00:42;7.82;;;4.18;;
11827;SDS011;5971;49.646;8.568;2023-08-17T07:03:45;6.22;;;3.90;;
11827;SDS011;5971;49.646;8.568;2023-08-17T07:06:46;7.32;;;3.90;;
11827;SDS011;5971;49.646;8.568;2023-08-17T07:09:47;5.95;;;3.20;;
11827;SDS011;5971;49.646;8.568;2023-08-17T07:12:49;6.10;;;3.50;;
11827;SDS011;5971;49.646;8.568;2023-08-17T07:15:50;7.10;;;3.78;;
11827;SDS011;5971;49.646;8.568;2023-08-17T07:18:51;7.80;;;4.10;;
11827;SDS011;5971;49.646;8.568;2023-08-17T07:21:53;7.55;;;4.28;;
11827;SDS011;5971;49.646;8.568;2023-08-17T07:24:55;6.90;;;3.85;;
11827;SDS011;5971;49.646;8.568;2023-08-17T07:27:56;6.22;;;4.03;;
11827;SDS011;5971;49.646;8.568;2023-08-17T07:30:58;6.80;;;3.60;;
11827;SDS011;5971;49.646;8.568;2023-08-17T07:34:02;7.00;;;3.50;;
11827;SDS011;5971;49.646;8.568;2023-08-17T07:37:06;6.35;;;4.25;;
11827;SDS011;5971;49.646;8.568;2023-08-17T07:40:07;7.97;;;4.10;;
11827;SDS011;5971;49.646;8.568;2023-08-17T07:43:09;5.63;;;3.80;;
11827;SDS011;5971;49.646;8.568;2023-08-17T07:46:11;7.10;;;3.80;;
11827;SDS011;5971;49.646;8.568;2023-08-17T07:49:12;7.03;;;4.07;;
11827;SDS011;5971;49.646;8.568;2023-08-17T07:52:30;6.00;;;3.70;;
11827;SDS011;5971;49.646;8.568;2023-08-17T07:55:32;6.35;;;4.05;;
11827;SDS011;5971;49.646;8.568;2023-08-17T07:58:33;6.35;;;4.30;;
11827;SDS011;5971;49.646;8.568;2023-08-17T08:01:34;6.35;;;3.97;;
11827;SDS011;5971;49.646;8.568;2023-08-17T08:04:36;5.78;;;3.70;;
11827;SDS011;5971;49.646;8.568;2023-08-17T08:07:37;6.57;;;4.10;;
11827;SDS011;5971;49.646;8.568;2023-08-17T08:10:39;5.57;;;3.83;;
11827;SDS011;5971;49.646;8.568;2023-08-17T08:13:40;5.72;;;3.83;;
11827;SDS011;5971;49.646;8.568;2023-08-17T08:16:42;7.05;;;4.05;;
11827;SDS011;5971;49.646;8.568;2023-08-17T08:19:43;7.60;;;4.60;;
11827;SDS011;5971;49.646;8.568;2023-08-17T08:22:44;7.93;;;3.80;;
11827;SDS011;5971;49.646;8.568;2023-08-17T08:25:46;7.60;;;4.65;;
11827;SDS011;5971;49.646;8.568;2023-08-17T08:28:47;6.30;;;4.25;;
11827;SDS011;5971;49.646;8.568;2023-08-17T08:31:49;7.13;;;4.15;;
11827;SDS011;5971;49.646;8.568;2023-08-17T08:34:50;6.93;;;5.07;;
11827;SDS011;5971;49.646;8.568;2023-08-17T08:37:51;8.32;;;4.35;;
11827;SDS011;5971;49.646;8.568;2023-08-17T08:40:53;6.68;;;4.85;;
11827;SDS011;5971;49.646;8.568;2023-08-17T08:43:54;5.85;;;3.90;;
11827;SDS011;5971;49.646;8.568;2023-08-17T08:46:56;6.40;;;4.10;;
11827;SDS011;5971;49.646;8.568;2023-08-17T08:49:58;6.75;;;4.75;;
11827;SDS011;5971;49.646;8.568;2023-08-17T08:53:02;5.05;;;3.47;;
11827;SDS011;5971;49.646;8.568;2023-08-17T08:56:07;6.10;;;3.83;;
11827;SDS011;5971;49.646;8.568;2023-08-17T08:59:10;5.35;;;3.17;;
11827;SDS011;5971;49.646;8.568;2023-08-17T09:02:13;6.65;;;3.50;;
11827;SDS011;5971;49.646;8.568;2023-08-17T09:05:15;5.40;;;4.38;;
11827;SDS011;5971;49.646;8.568;2023-08-17T09:08:21;4.38;;;3.25;;
11827;SDS011;5971;49.646;8.568;2023-08-17T09:11:23;4.57;;;2.95;;
11827;SDS011;5971;49.646;8.568;2023-08-17T09:14:24;4.78;;;3.28;;
11827;SDS011;5971;49.646;8.568;2023-08-17T09:17:26;5.93;;;3.10;;
11827;SDS011;5971;49.646;8.568;2023-08-17T09:20:44;5.30;;;3.00;;
11827;SDS011;5971;49.646;8.568;2023-08-17T09:23:53;5.32;;;2.95;;
11827;SDS011;5971;49.646;8.568;2023-08-17T09:26:59;4.85;;;3.85;;
11827;SDS011;5971;49.646;8.568;2023-08-17T09:30:02;4.28;;;2.88;;
11827;SDS011;5971;49.646;8.568;2023-08-17T09:33:05;3.97;;;2.97;;
11827;SDS011;5971;49.646;8.568;2023-08-17T09:36:06;4.45;;;3.25;;
11827;SDS011;5971;49.646;8.568;2023-08-17T09:39:10;4.30;;;2.90;;
11827;SDS011;5971;49.646;8.568;2023-08-17T09:42:16;4.82;;;3.92;;
11827;SDS011;5971;49.646;8.568;2023-08-17T09:45:19;4.43;;;3.38;;
11827;SDS011;5971;49.646;8.568;2023-08-17T09:48:20;4.57;;;3.20;;
11827;SDS011;5971;49.646;8.568;2023-08-17T09:51:21;4.97;;;3.42;;
11827;SDS011;5971;49.646;8.568;2023-08-17T09:54:23;5.10;;;3.05;;
11827;SDS011;5971;49.646;8.568;2023-08-17T09:57:25;5.82;;;3.22;;
11827;SDS011;5971;49.646;8.568;2023-08-17T10:00:27;5.15;;;3.45;;
11827;SDS011;5971;49.646;8.568;2023-08-17T10:03:28;5.43;;;3.40;;
11827;SDS011;5971;49.646;8.568;2023-08-17T10:06:30;6.53;;;3.33;;
11827;SDS011;5971;49.646;8.568;2023-08-17T10:09:36;5.40;;;3.10;;
11827;SDS011;5971;49.646;8.568;2023-08-17T10:12:44;5.00;;;2.90;;
11827;SDS011;5971;49.646;8.568;2023-08-17T10:25:34;4.25;;;2.72;;
11827;SDS011;5971;49.646;8.568;2023-08-17T10:28:36;4.75;;;3.38;;
11827;SDS011;5971;49.646;8.568;2023-08-17T10:31:38;6.38;;;3.63;;
11827;SDS011;5971;49.646;8.568;2023-08-17T10:34:39;5.20;;;3.53;;
11827;SDS011;5971;49.646;8.568;2023-08-17T10:37:41;4.97;;;3.20;;
11827;SDS011;5971;49.646;8.568;2023-08-17T10:40:43;5.88;;;3.10;;
11827;SDS011;5971;49.646;8.568;2023-08-17T10:43:54;4.35;;;2.90;;
11827;SDS011;5971;49.646;8.568;2023-08-17T10:46:56;5.05;;;3.28;;
11827;SDS011;5971;49.646;8.568;2023-08-17T10:49:58;3.95;;;2.97;;
11827;SDS011;5971;49.646;8.568;2023-08-17T10:53:03;7.18;;;3.55;;
11827;SDS011;5971;49.646;8.568;2023-08-17T10:56:06;5.00;;;3.10;;
11827;SDS011;5971;49.646;8.568;2023-08-17T10:59:12;4.35;;;3.25;;
11827;SDS011;5971;49.646;8.568;2023-08-17T11:02:25;4.93;;;3.10;;
11827;SDS011;5971;49.646;8.568;2023-08-17T11:08:55;4.78;;;3.25;;
11827;SDS011;5971;49.646;8.568;2023-08-17T11:11:57;4.50;;;3.00;;
11827;SDS011;5971;49.646;8.568;2023-08-17T11:15:01;5.18;;;3.60;;
11827;SDS011;5971;49.646;8.568;2023-08-17T11:18:02;5.28;;;3.22;;
11827;SDS011;5971;49.646;8.568;2023-08-17T11:21:09;5.45;;;3.70;;
11827;SDS011;5971;49.646;8.568;2023-08-17T11:24:11;4.07;;;3.28;;
11827;SDS011;5971;49.646;8.568;2023-08-17T11:27:12;4.20;;;3.17;;
11827;SDS011;5971;49.646;8.568;2023-08-17T11:30:14;4.63;;;4.15;;
11827;SDS011;5971;49.646;8.568;2023-08-17T11:33:15;4.65;;;3.10;;
11827;SDS011;5971;49.646;8.568;2023-08-17T11:36:17;5.07;;;3.67;;
11827;SDS011;5971;49.646;8.568;2023-08-17T11:39:18;5.13;;;3.42;;
11827;SDS011;5971;49.646;8.568;2023-08-17T11:42:22;4.82;;;2.90;;
11827;SDS011;5971;49.646;8.568;2023-08-17T11:45:23;4.20;;;3.45;;
11827;SDS011;5971;49.646;8.568;2023-08-17T11:48:28;4.72;;;3.22;;
11827;SDS011;5971;49.646;8.568;2023-08-17T11:51:30;4.68;;;3.40;;
11827;SDS011;5971;49.646;8.568;2023-08-17T11:54:32;3.75;;;2.90;;
11827;SDS011;5971;49.646;8.568;2023-08-17T11:57:34;4.82;;;4.05;;
11827;SDS011;5971;49.646;8.568;2023-08-17T12:00:36;4.90;;;3.03;;
11827;SDS011;5971;49.646;8.568;2023-08-17T12:03:40;3.38;;;2.90;;
11827;SDS011;5971;49.646;8.568;2023-08-17T12:06:43;4.35;;;3.88;;
11827;SDS011;5971;49.646;8.568;2023-08-17T12:09:46;5.30;;;3.85;;
11827;SDS011;5971;49.646;8.568;2023-08-17T12:12:47;4.00;;;3.28;;
11827;SDS011;5971;49.646;8.568;2023-08-17T12:15:49;4.63;;;3.60;;
11827;SDS011;5971;49.646;8.568;2023-08-17T12:18:51;4.55;;;3.22;;
11827;SDS011;5971;49.646;8.568;2023-08-17T12:21:53;4.97;;;3.33;;
11827;SDS011;5971;49.646;8.568;2023-08-17T12:24:54;4.97;;;4.05;;
11827;SDS011;5971;49.646;8.568;2023-08-17T12:27:57;4.60;;;4.20;;
11827;SDS011;5971;49.646;8.568;2023-08-17T12:31:02;4.30;;;3.70;;
11827;SDS011;5971;49.646;8.568;2023-08-17T12:34:04;3.72;;;3.00;;
11827;SDS011;5971;49.646;8.568;2023-08-17T12:37:08;3.90;;;3.10;;
11827;SDS011;5971;49.646;8.568;2023-08-17T12:43:11;4.75;;;2.97;;
11827;SDS011;5971;49.646;8.568;2023-08-17T12:46:15;4.18;;;2.92;;
11827;SDS011;5971;49.646;8.568;2023-08-17T12:49:17;3.53;;;2.60;;
11827;SDS011;5971;49.646;8.568;2023-08-17T12:52:18;4.78;;;3.00;;
11827;SDS011;5971;49.646;8.568;2023-08-17T12:55:20;4.38;;;2.58;;
11827;SDS011;5971;49.646;8.568;2023-08-17T12:58:21;3.20;;;2.60;;
11827;SDS011;5971;49.646;8.568;2023-08-17T13:01:23;4.45;;;3.30;;
11827;SDS011;5971;49.646;8.568;2023-08-17T13:04:24;3.60;;;2.40;;
11827;SDS011;5971;49.646;8.568;2023-08-17T13:07:25;4.28;;;2.75;;
11827;SDS011;5971;49.646;8.568;2023-08-17T13:10:27;3.42;;;2.50;;
11827;SDS011;5971;49.646;8.568;2023-08-17T13:13:29;3.50;;;2.72;;
11827;SDS011;5971;49.646;8.568;2023-08-17T13:16:30;4.95;;;2.90;;
11827;SDS011;5971;49.646;8.568;2023-08-17T13:19:31;4.13;;;2.70;;
11827;SDS011;5971;49.646;8.568;2023-08-17T13:22:33;4.88;;;2.80;;
11827;SDS011;5971;49.646;8.568;2023-08-17T13:25:34;4.55;;;2.90;;
11827;SDS011;5971;49.646;8.568;2023-08-17T13:28:36;4.75;;;3.80;;
11827;SDS011;5971;49.646;8.568;2023-08-17T13:31:37;4.13;;;2.70;;
11827;SDS011;5971;49.646;8.568;2023-08-17T13:34:38;4.25;;;2.95;;
11827;SDS011;5971;49.646;8.568;2023-08-17T13:37:40;6.05;;;2.92;;
11827;SDS011;5971;49.646;8.568;2023-08-17T13:40:42;5.90;;;2.83;;
11827;SDS011;5971;49.646;8.568;2023-08-17T13:43:43;5.50;;;4.00;;
11827;SDS011;5971;49.646;8.568;2023-08-17T13:46:44;4.72;;;3.10;;
11827;SDS011;5971;49.646;8.568;2023-08-17T13:49:46;4.50;;;3.58;;
11827;SDS011;5971;49.646;8.568;2023-08-17T13:52:47;5.03;;;3.80;;
11827;SDS011;5971;49.646;8.568;2023-08-17T13:55:49;4.63;;;3.85;;
11827;SDS011;5971;49.646;8.568;2023-08-17T13:58:50;4.28;;;3.88;;
11827;SDS011;5971;49.646;8.568;2023-08-17T14:01:51;5.55;;;4.18;;
11827;SDS011;5971;49.646;8.568;2023-08-17T14:04:53;6.43;;;4.60;;
11827;SDS011;5971;49.646;8.568;2023-08-17T14:07:54;5.10;;;4.50;;
11827;SDS011;5971;49.646;8.568;2023-08-17T14:10:56;5.53;;;4.47;;
11827;SDS011;5971;49.646;8.568;2023-08-17T14:13:57;5.00;;;4.50;;
11827;SDS011;5971;49.646;8.568;2023-08-17T14:16:58;6.20;;;4.55;;
11827;SDS011;5971;49.646;8.568;2023-08-17T14:19:59;4.95;;;3.70;;
11827;SDS011;5971;49.646;8.568;2023-08-17T14:23:01;5.28;;;3.65;;
11827;SDS011;5971;49.646;8.568;2023-08-17T14:26:02;4.60;;;3.58;;
11827;SDS011;5971;49.646;8.568;2023-08-17T14:29:03;5.45;;;4.70;;
11827;SDS011;5971;49.646;8.568;2023-08-17T14:32:06;5.15;;;3.55;;
11827;SDS011;5971;49.646;8.568;2023-08-17T14:35:08;4.55;;;3.55;;
11827;SDS011;5971;49.646;8.568;2023-08-17T14:38:12;5.07;;;3.70;;
11827;SDS011;5971;49.646;8.568;2023-08-17T14:41:14;4.70;;;3.45;;
11827;SDS011;5971;49.646;8.568;2023-08-17T14:44:16;7.65;;;4.13;;
11827;SDS011;5971;49.646;8.568;2023-08-17T14:47:18;5.10;;;3.78;;
11827;SDS011;5971;49.646;8.568;2023-08-17T14:50:21;3.90;;;3.50;;
11827;SDS011;5971;49.646;8.568;2023-08-17T14:53:29;4.50;;;3.70;;
11827;SDS011;5971;49.646;8.568;2023-08-17T14:56:30;4.65;;;3.50;;
11827;SDS011;5971;49.646;8.568;2023-08-17T14:59:32;4.60;;;3.72;;
11827;SDS011;5971;49.646;8.568;2023-08-17T15:02:33;5.13;;;3.88;;
11827;SDS011;5971;49.646;8.568;2023-08-17T15:05:35;5.32;;;3.70;;
11827;SDS011;5971;49.646;8.568;2023-08-17T15:08:39;4.88;;;3.88;;
11827;SDS011;5971;49.646;8.568;2023-08-17T15:11:40;4.82;;;4.00;;
11827;SDS011;5971;49.646;8.568;2023-08-17T15:14:42;4.75;;;3.90;;
11827;SDS011;5971;49.646;8.568;2023-08-17T15:17:43;5.10;;;3.70;;
11827;SDS011;5971;49.646;8.568;2023-08-17T15:20:44;4.40;;;3.67;;
11827;SDS011;5971;49.646;8.568;2023-08-17T15:23:46;4.43;;;3.60;;
11827;SDS011;5971;49.646;8.568;2023-08-17T15:26:47;5.97;;;4.32;;
11827;SDS011;5971;49.646;8.568;2023-08-17T15:29:48;4.55;;;3.78;;
11827;SDS011;5971;49.646;8.568;2023-08-17T15:32:50;5.60;;;3.97;;
11827;SDS011;5971;49.646;8.568;2023-08-17T15:35:51;4.35;;;3.63;;
11827;SDS011;5971;49.646;8.568;2023-08-17T15:38:52;4.75;;;3.63;;
11827;SDS011;5971;49.646;8.568;2023-08-17T15:41:54;5.40;;;3.80;;
11827;SDS011;5971;49.646;8.568;2023-08-17T15:44:55;4.00;;;3.33;;
11827;SDS011;5971;49.646;8.568;2023-08-17T15:47:56;5.15;;;3.58;;
11827;SDS011;5971;49.646;8.568;2023-08-17T15:50:58;5.50;;;3.72;;
11827;SDS011;5971;49.646;8.568;2023-08-17T15:53:59;4.88;;;3.20;;
11827;SDS011;5971;49.646;8.568;2023-08-17T15:57:00;4.65;;;3.30;;
11827;SDS011;5971;49.646;8.568;2023-08-17T16:00:02;4.22;;;3.35;;
11827;SDS011;5971;49.646;8.568;2023-08-17T16:03:04;4.10;;;3.13;;
11827;SDS011;5971;49.646;8.568;2023-08-17T16:06:05;3.97;;;3.50;;
11827;SDS011;5971;49.646;8.568;2023-08-17T16:09:07;4.55;;;3.08;;
11827;SDS011;5971;49.646;8.568;2023-08-17T16:12:08;4.15;;;3.22;;
11827;SDS011;5971;49.646;8.568;2023-08-17T16:15:10;3.70;;;3.22;;
11827;SDS011;5971;49.646;8.568;2023-08-17T16:18:11;5.25;;;3.17;;
11827;SDS011;5971;49.646;8.568;2023-08-17T16:21:13;4.10;;;2.97;;
11827;SDS011;5971;49.646;8.568;2023-08-17T16:24:15;5.75;;;3.40;;
11827;SDS011;5971;49.646;8.568;2023-08-17T16:27:17;5.80;;;3.35;;
11827;SDS011;5971;49.646;8.568;2023-08-17T16:30:18;4.43;;;3.10;;
11827;SDS011;5971;49.646;8.568;2023-08-17T16:33:19;5.68;;;2.95;;
11827;SDS011;5971;49.646;8.568;2023-08-17T16:36:22;4.55;;;3.00;;
11827;SDS011;5971;49.646;8.568;2023-08-17T16:39:24;4.65;;;3.33;;
11827;SDS011;5971;49.646;8.568;2023-08-17T16:42:26;3.78;;;2.78;;
11827;SDS011;5971;49.646;8.568;2023-08-17T16:45:27;3.72;;;2.67;;
11827;SDS011;5971;49.646;8.568;2023-08-17T16:48:29;4.10;;;3.40;;
11827;SDS011;5971;49.646;8.568;2023-08-17T16:51:30;4.47;;;3.90;;
11827;SDS011;5971;49.646;8.568;2023-08-17T16:54:36;4.13;;;2.90;;
11827;SDS011;5971;49.646;8.568;2023-08-17T16:57:37;4.70;;;3.13;;
11827;SDS011;5971;49.646;8.568;2023-08-17T17:00:39;4.28;;;2.92;;
11827;SDS011;5971;49.646;8.568;2023-08-17T17:03:41;5.07;;;3.28;;
11827;SDS011;5971;49.646;8.568;2023-08-17T17:06:42;4.43;;;3.15;;
11827;SDS011;5971;49.646;8.568;2023-08-17T17:09:43;5.43;;;3.67;;
11827;SDS011;5971;49.646;8.568;2023-08-17T17:12:45;4.97;;;4.13;;
11827;SDS011;5971;49.646;8.568;2023-08-17T17:15:47;5.65;;;3.60;;
11827;SDS011;5971;49.646;8.568;2023-08-17T17:18:48;4.80;;;4.03;;
11827;SDS011;5971;49.646;8.568;2023-08-17T17:21:49;4.40;;;3.60;;
11827;SDS011;5971;49.646;8.568;2023-08-17T17:24:51;4.90;;;3.22;;
11827;SDS011;5971;49.646;8.568;2023-08-17T17:27:52;4.18;;;3.40;;
11827;SDS011;5971;49.646;8.568;2023-08-17T17:30:53;5.18;;;4.25;;
11827;SDS011;5971;49.646;8.568;2023-08-17T17:33:55;6.70;;;4.95;;
11827;SDS011;5971;49.646;8.568;2023-08-17T17:36:57;5.45;;;3.85;;
11827;SDS011;5971;49.646;8.568;2023-08-17T17:39:58;5.78;;;4.03;;
11827;SDS011;5971;49.646;8.568;2023-08-17T17:42:59;5.05;;;3.45;;
11827;SDS011;5971;49.646;8.568;2023-08-17T17:46:01;7.72;;;3.60;;
11827;SDS011;5971;49.646;8.568;2023-08-17T17:49:02;4.43;;;3.58;;
11827;SDS011;5971;49.646;8.568;2023-08-17T17:52:04;5.18;;;3.50;;
11827;SDS011;5971;49.646;8.568;2023-08-17T17:55:05;5.07;;;3.35;;
11827;SDS011;5971;49.646;8.568;2023-08-17T17:58:06;4.72;;;3.53;;
11827;SDS011;5971;49.646;8.568;2023-08-17T18:01:08;4.93;;;3.33;;
11827;SDS011;5971;49.646;8.568;2023-08-17T18:04:09;5.35;;;3.58;;
11827;SDS011;5971;49.646;8.568;2023-08-17T18:07:11;4.50;;;3.20;;
11827;SDS011;5971;49.646;8.568;2023-08-17T18:10:12;5.75;;;3.90;;
11827;SDS011;5971;49.646;8.568;2023-08-17T18:13:13;6.13;;;3.90;;
11827;SDS011;5971;49.646;8.568;2023-08-17T18:16:15;6.47;;;4.10;;
11827;SDS011;5971;49.646;8.568;2023-08-17T18:19:16;4.65;;;3.67;;
11827;SDS011;5971;49.646;8.568;2023-08-17T18:22:17;5.85;;;3.85;;
11827;SDS011;5971;49.646;8.568;2023-08-17T18:25:19;5.72;;;3.63;;
11827;SDS011;5971;49.646;8.568;2023-08-17T18:28:20;6.85;;;3.75;;
11827;SDS011;5971;49.646;8.568;2023-08-17T18:31:22;4.53;;;3.30;;
11827;SDS011;5971;49.646;8.568;2023-08-17T18:34:23;4.93;;;3.63;;
11827;SDS011;5971;49.646;8.568;2023-08-17T18:37:25;5.32;;;3.10;;
11827;SDS011;5971;49.646;8.568;2023-08-17T18:40:26;5.38;;;3.15;;
11827;SDS011;5971;49.646;8.568;2023-08-17T18:43:28;4.68;;;3.20;;
11827;SDS011;5971;49.646;8.568;2023-08-17T18:46:29;6.03;;;3.50;;
11827;SDS011;5971;49.646;8.568;2023-08-17T18:49:30;5.32;;;3.40;;
11827;SDS011;5971;49.646;8.568;2023-08-17T18:52:32;5.32;;;3.38;;
11827;SDS011;5971;49.646;8.568;2023-08-17T18:55:33;5.97;;;3.65;;